This is the latest recevied weather packets stored in our database for station/object CA2RRL-10. If no packets are shown the sender has not sent any weather packets the latest 10 day(s).
| Time | Temp. | Humidity | Pressure | Rain* | Wind** | Luminosity | Snow |
|---|---|---|---|---|---|---|---|
| 1777817909 | 15.56° C | 38% | 1032.1 hPa | - | - | - | - |
| 1777817008 | 14.44° C | 40% | 1032.3 hPa | - | - | - | - |
| 1777816108 | 13.89° C | 41% | 1032.4 hPa | - | - | - | - |
| 1777815208 | 12.78° C | 43% | 1032.3 hPa | - | - | - | - |
| 1777814308 | 11.67° C | 46% | 1032.2 hPa | - | - | - | - |
| 1777813408 | 10.56° C | 48% | 1032.4 hPa | - | - | - | - |
| 1777812508 | 9.44° C | 50% | 1032.1 hPa | - | - | - | - |
| 1777811608 | 8.89° C | 51% | 1032 hPa | - | - | - | - |
| 1777810708 | 8.33° C | 51% | 1031.8 hPa | - | - | - | - |
| 1777809808 | 8.33° C | 50% | 1031.7 hPa | - | - | - | - |
| 1777808908 | 7.78° C | 50% | 1031.4 hPa | - | - | - | - |
| 1777808008 | 8.33° C | 50% | 1031.3 hPa | - | - | - | - |
| 1777807108 | 8.33° C | 50% | 1031.1 hPa | - | - | - | - |
| 1777806207 | 8.33° C | 50% | 1031 hPa | - | - | - | - |
| 1777805307 | 8.33° C | 50% | 1031 hPa | - | - | - | - |
| 1777804407 | 8.89° C | 50% | 1031 hPa | - | - | - | - |
| 1777803507 | 8.89° C | 50% | 1031 hPa | - | - | - | - |
| 1777802607 | 8.89° C | 50% | 1031.1 hPa | - | - | - | - |
| 1777801707 | 9.44° C | 49% | 1031 hPa | - | - | - | - |
| 1777800807 | 9.44° C | 50% | 1031 hPa | - | - | - | - |
| 1777799907 | 9.44° C | 50% | 1031.1 hPa | - | - | - | - |
| 1777799007 | 9.44° C | 50% | 1031.2 hPa | - | - | - | - |
| 1777798107 | 9.44° C | 48% | 1031.2 hPa | - | - | - | - |
| 1777797207 | 10° C | 47% | 1031.1 hPa | - | - | - | - |
| 1777796307 | 10° C | 49% | 1031.4 hPa | - | - | - | - |
* Rain since midnight (hover to see other rain measurements)
** Current wind speed in m/s (hover to see current wind gust speed)